Time;durP1;ratioP1;P1;durP2;ratioP2;P2;SDS_P1;SDS_P2;PMS_P1;PMS_P2;Temp;Humidity;BMP_temperature;BMP_pressure;BME280_temperature;BME280_humidity;BME280_pressure;Samples;Min_cycle;Max_cycle;Signal;HPM_P1;HPM_P2
2023/12/26 00:00:08;;;;;;;3.70;1.30;;;6.00;24.20;;;;;;5060559;28;46464;-79
2023/12/26 00:02:34;;;;;;;4.17;1.33;;;6.00;24.20;;;;;;5076758;27;46637;-78
2023/12/26 00:04:59;;;;;;;3.10;1.43;;;6.00;24.20;;;;;;5077682;27;46914;-78
2023/12/26 00:07:25;;;;;;;5.47;1.93;;;6.00;24.20;;;;;;5078789;27;46938;-79
2023/12/26 00:09:50;;;;;;;4.00;1.50;;;6.00;24.20;;;;;;5078413;27;46410;-78
2023/12/26 00:12:16;;;;;;;6.57;1.73;;;6.00;24.20;;;;;;5062801;28;46723;-78
2023/12/26 00:14:41;;;;;;;2.83;1.40;;;6.00;24.20;;;;;;5079354;27;46515;-79
2023/12/26 00:17:07;;;;;;;3.83;1.30;;;6.00;24.20;;;;;;5077459;27;47020;-77
2023/12/26 00:19:33;;;;;;;3.37;1.37;;;5.90;24.40;;;;;;5081316;27;46358;-78
2023/12/26 00:21:58;;;;;;;7.60;1.80;;;6.00;24.70;;;;;;5078516;27;46484;-78
2023/12/26 00:24:24;;;;;;;2.63;1.53;;;5.80;24.90;;;;;;5064326;28;46549;-78
2023/12/26 00:26:49;;;;;;;3.77;1.90;;;5.80;25.10;;;;;;5080723;27;46549;-78
2023/12/26 00:29:15;;;;;;;3.70;1.40;;;5.70;25.30;;;;;;5081463;27;46523;-78
2023/12/26 00:31:41;;;;;;;5.97;1.80;;;5.60;25.50;;;;;;5079280;27;46739;-78
2023/12/26 00:34:07;;;;;;;3.63;1.60;;;5.60;25.70;;;;;;5060860;27;46471;-78
2023/12/26 00:36:33;;;;;;;3.90;1.63;;;5.50;25.80;;;;;;5080496;27;46529;-78
2023/12/26 00:38:58;;;;;;;5.70;1.70;;;5.40;26.00;;;;;;5081499;27;46442;-79
2023/12/26 00:41:24;;;;;;;5.30;1.70;;;5.40;27.10;;;;;;5067660;28;46474;-81
2023/12/26 00:43:51;;;;;;;4.60;1.40;;;5.30;26.30;;;;;;5086112;27;46913;-78
2023/12/26 00:46:18;;;;;;;5.10;1.80;;;5.30;26.50;;;;;;5066570;28;48916;-78
2023/12/26 00:48:44;;;;;;;4.90;1.50;;;5.30;26.60;;;;;;5086034;27;46418;-79
2023/12/26 00:51:09;;;;;;;11.53;1.90;;;5.30;26.60;;;;;;5085057;27;45946;-81
2023/12/26 00:53:35;;;;;;;3.57;1.67;;;5.30;26.70;;;;;;5086810;27;46822;-79
2023/12/26 00:56:00;;;;;;;4.23;1.80;;;5.20;26.80;;;;;;5084635;27;46660;-78
2023/12/26 00:58:27;;;;;;;4.17;1.90;;;5.20;26.90;;;;;;5087876;27;46504;-81
2023/12/26 01:00:53;;;;;;;3.00;1.80;;;5.30;27.00;;;;;;5068139;27;46554;-79
2023/12/26 01:03:22;;;;;;;7.20;1.90;;;5.30;27.10;;;;;;5087931;27;46430;-80
2023/12/26 01:05:49;;;;;;;5.20;1.90;;;5.20;27.20;;;;;;5071505;28;48035;-80
2023/12/26 01:08:14;;;;;;;6.63;2.10;;;5.20;27.50;;;;;;5089676;27;46782;-79
2023/12/26 01:10:40;;;;;;;4.00;1.87;;;5.20;27.60;;;;;;5089784;27;46450;-80
2023/12/26 01:13:05;;;;;;;6.17;1.70;;;5.20;27.80;;;;;;5089771;27;46533;-80
2023/12/26 01:15:31;;;;;;;3.40;2.20;;;5.20;28.10;;;;;;5067925;27;48278;-80
2023/12/26 01:17:57;;;;;;;4.80;2.00;;;5.20;28.20;;;;;;5080143;27;45910;-78
2023/12/26 01:20:23;;;;;;;3.87;1.77;;;5.20;28.20;;;;;;5079281;27;46679;-79
2023/12/26 01:22:48;;;;;;;4.10;2.03;;;5.20;28.30;;;;;;5079372;27;46875;-78
2023/12/26 01:25:14;;;;;;;5.23;2.13;;;5.20;28.40;;;;;;5078054;27;48918;-78
2023/12/26 01:27:39;;;;;;;2.90;1.80;;;5.20;28.50;;;;;;5062169;28;46606;-78
2023/12/26 01:30:06;;;;;;;8.43;2.80;;;5.10;28.50;;;;;;5078210;27;46430;-78
2023/12/26 01:32:32;;;;;;;6.70;2.40;;;5.10;28.70;;;;;;5062711;27;46557;-79
2023/12/26 01:34:58;;;;;;;7.30;1.77;;;5.10;29.00;;;;;;5078065;27;47003;-79
2023/12/26 01:37:24;;;;;;;5.50;2.40;;;5.10;29.10;;;;;;5080023;27;46476;-79
2023/12/26 01:39:50;;;;;;;7.23;2.03;;;5.10;29.20;;;;;;5060113;27;46397;-79
2023/12/26 01:42:16;;;;;;;6.10;2.30;;;5.20;29.70;;;;;;5061064;28;46639;-78
2023/12/26 01:44:41;;;;;;;4.90;1.67;;;5.20;29.80;;;;;;5066953;28;49016;-78
2023/12/26 01:47:07;;;;;;;3.50;2.00;;;5.20;29.90;;;;;;5079327;27;46396;-78
2023/12/26 01:49:33;;;;;;;3.90;2.00;;;5.20;29.80;;;;;;5078918;27;46427;-79
2023/12/26 01:51:59;;;;;;;6.87;2.00;;;5.20;30.00;;;;;;5078234;27;46421;-79
2023/12/26 01:54:31;;;;;;;4.27;2.10;;;5.20;30.00;;;;;;5061399;28;48091;-79
2023/12/26 01:56:57;;;;;;;5.97;2.20;;;5.20;30.10;;;;;;5077580;27;46763;-80
2023/12/26 01:59:23;;;;;;;6.77;2.07;;;5.20;30.20;;;;;;5063133;28;46521;-79
2023/12/26 02:01:49;;;;;;;5.93;1.80;;;5.20;30.30;;;;;;5066405;28;46807;-80
2023/12/26 02:04:14;;;;;;;7.93;2.30;;;5.10;30.40;;;;;;5081140;27;46719;-79
2023/12/26 02:06:40;;;;;;;4.50;2.23;;;5.20;30.60;;;;;;5081785;27;45818;-79
2023/12/26 02:09:10;;;;;;;6.77;2.00;;;5.10;30.70;;;;;;5064584;27;46746;-79
2023/12/26 02:11:37;;;;;;;7.40;2.20;;;5.10;30.80;;;;;;5079005;28;46564;-79
2023/12/26 02:14:06;;;;;;;7.23;1.90;;;5.00;31.10;;;;;;5081732;27;47220;-78
2023/12/26 02:16:37;;;;;;;4.90;1.87;;;5.00;31.30;;;;;;5079762;28;46430;-77
2023/12/26 02:19:03;;;;;;;5.90;2.17;;;5.00;31.40;;;;;;5079125;28;46723;-80
2023/12/26 02:21:29;;;;;;;2.70;1.80;;;5.00;31.40;;;;;;5080552;27;46581;-80
2023/12/26 02:23:58;;;;;;;4.23;2.00;;;5.00;31.70;;;;;;5083256;28;46482;-79
2023/12/26 02:26:26;;;;;;;5.80;2.40;;;5.00;31.70;;;;;;5066632;28;46571;-79
2023/12/26 02:28:58;;;;;;;3.40;1.80;;;5.00;31.80;;;;;;5066522;28;46525;-79
2023/12/26 02:31:25;;;;;;;7.50;2.67;;;5.00;31.70;;;;;;5082332;28;46457;-78
2023/12/26 02:33:52;;;;;;;4.53;1.77;;;5.00;33.00;;;;;;5083873;27;46490;-78
2023/12/26 02:36:17;;;;;;;3.37;1.90;;;5.00;31.90;;;;;;5083255;27;46849;-80
2023/12/26 02:38:43;;;;;;;6.60;2.20;;;5.00;31.80;;;;;;5084694;28;46415;-80
2023/12/26 02:41:08;;;;;;;6.23;1.90;;;5.00;31.80;;;;;;5083337;28;46615;-80
2023/12/26 02:43:34;;;;;;;4.97;1.70;;;5.10;31.90;;;;;;5069162;28;48539;-78
2023/12/26 02:45:59;;;;;;;5.30;1.70;;;5.00;31.70;;;;;;5079415;27;46481;-79
2023/12/26 02:48:25;;;;;;;2.60;1.53;;;5.10;31.90;;;;;;5084976;28;46478;-79
2023/12/26 02:50:52;;;;;;;3.00;1.50;;;5.00;31.80;;;;;;5060277;28;46470;-79
2023/12/26 02:53:17;;;;;;;3.20;1.70;;;5.00;31.80;;;;;;5085886;27;46848;-79
2023/12/26 02:55:43;;;;;;;4.60;1.70;;;5.10;31.80;;;;;;5087961;27;46730;-79
2023/12/26 02:58:09;;;;;;;3.63;1.90;;;5.00;31.70;;;;;;5088393;27;46765;-80
2023/12/26 03:00:35;;;;;;;2.90;1.63;;;5.00;31.80;;;;;;5070411;28;46844;-79
2023/12/26 03:03:00;;;;;;;8.37;2.73;;;5.00;31.80;;;;;;5086214;27;46099;-80
2023/12/26 03:05:26;;;;;;;4.30;1.80;;;5.00;31.80;;;;;;5087368;27;46506;-80
2023/12/26 03:07:51;;;;;;;4.33;2.00;;;5.00;31.70;;;;;;5089737;27;46408;-79
2023/12/26 03:10:17;;;;;;;11.43;2.10;;;5.00;31.90;;;;;;5076209;28;46355;-79
2023/12/26 03:12:43;;;;;;;3.77;1.87;;;5.00;31.90;;;;;;5079271;27;46489;-79
2023/12/26 03:15:10;;;;;;;4.73;1.97;;;4.90;32.00;;;;;;5076740;28;46415;-79
2023/12/26 03:17:36;;;;;;;8.73;2.00;;;4.90;32.00;;;;;;5080498;27;46471;-79
2023/12/26 03:20:01;;;;;;;5.30;2.30;;;4.80;32.00;;;;;;5079728;27;46534;-79
2023/12/26 03:22:27;;;;;;;6.70;1.90;;;4.80;32.10;;;;;;5078720;27;46419;-80
2023/12/26 03:24:53;;;;;;;3.17;1.93;;;4.80;32.20;;;;;;5081033;27;46351;-78
2023/12/26 03:27:18;;;;;;;4.27;1.90;;;4.80;32.20;;;;;;5080342;27;47307;-79
2023/12/26 03:29:44;;;;;;;7.83;2.20;;;4.70;32.20;;;;;;5081588;27;46791;-79
2023/12/26 03:32:09;;;;;;;8.43;2.00;;;4.80;33.40;;;;;;5079977;27;47172;-79
2023/12/26 03:34:37;;;;;;;3.83;2.40;;;4.70;32.20;;;;;;5078295;27;46408;-80
2023/12/26 03:37:03;;;;;;;3.87;2.37;;;4.70;32.10;;;;;;5079609;27;46533;-80
2023/12/26 03:39:29;;;;;;;5.43;2.73;;;4.70;32.20;;;;;;5079587;27;46622;-79
2023/12/26 03:41:54;;;;;;;3.50;1.90;;;4.70;32.20;;;;;;5078605;28;46829;-80
2023/12/26 03:44:20;;;;;;;6.10;1.87;;;4.60;32.20;;;;;;5078134;27;46463;-79
2023/12/26 03:46:45;;;;;;;2.80;1.57;;;4.60;32.20;;;;;;5077807;27;46777;-77
2023/12/26 03:49:11;;;;;;;5.90;1.80;;;4.60;32.10;;;;;;5077684;27;46676;-79
2023/12/26 03:51:37;;;;;;;3.83;1.70;;;4.60;32.10;;;;;;5078437;27;45952;-79
2023/12/26 03:54:03;;;;;;;2.80;1.80;;;4.60;32.20;;;;;;5060097;28;46859;-78
2023/12/26 03:56:33;;;;;;;6.67;1.67;;;4.60;32.10;;;;;;5058922;28;46737;-79
2023/12/26 03:59:00;;;;;;;4.20;1.80;;;4.60;32.10;;;;;;5050520;28;47288;-80
2023/12/26 04:01:26;;;;;;;2.80;1.53;;;4.60;32.30;;;;;;5076915;27;47095;-79
2023/12/26 04:03:52;;;;;;;5.67;2.10;;;4.60;32.10;;;;;;5064022;28;46483;-79
2023/12/26 04:06:18;;;;;;;7.30;1.90;;;4.60;31.80;;;;;;5076602;27;46379;-79
2023/12/26 04:08:43;;;;;;;5.30;1.80;;;4.60;31.80;;;;;;5079671;27;46435;-80
2023/12/26 04:11:10;;;;;;;2.53;1.50;;;4.60;31.90;;;;;;5059366;28;48163;-78
2023/12/26 04:13:36;;;;;;;7.17;1.80;;;4.50;31.80;;;;;;5077937;27;46498;-79
2023/12/26 04:16:01;;;;;;;2.90;1.67;;;4.50;32.00;;;;;;5077890;27;46533;-79
2023/12/26 04:18:27;;;;;;;4.30;1.60;;;4.40;32.00;;;;;;5062438;28;46851;-80
2023/12/26 04:20:52;;;;;;;3.97;1.67;;;4.50;32.10;;;;;;5084059;27;46678;-80
2023/12/26 04:23:18;;;;;;;3.30;1.77;;;4.40;32.10;;;;;;5083713;27;46665;-80
2023/12/26 04:25:44;;;;;;;6.40;1.90;;;4.40;32.10;;;;;;5080574;27;45891;-79
2023/12/26 04:28:10;;;;;;;5.63;1.60;;;4.40;32.10;;;;;;5077984;27;46530;-78
2023/12/26 04:30:36;;;;;;;3.27;1.73;;;4.40;32.00;;;;;;5052175;28;48238;-78
2023/12/26 04:33:02;;;;;;;3.13;1.70;;;4.30;31.90;;;;;;5078559;27;47397;-81
2023/12/26 04:35:28;;;;;;;2.87;1.30;;;4.30;31.90;;;;;;5079167;27;46542;-79
2023/12/26 04:37:53;;;;;;;4.80;2.00;;;4.40;31.50;;;;;;5067578;28;46369;-80
2023/12/26 04:40:19;;;;;;;5.30;1.73;;;4.60;31.40;;;;;;5080417;28;46560;-80
2023/12/26 04:42:45;;;;;;;1.70;1.43;;;4.80;31.10;;;;;;5084812;27;46690;-79
2023/12/26 04:45:11;;;;;;;6.63;1.40;;;4.80;30.70;;;;;;5071313;28;45930;-78
2023/12/26 04:47:37;;;;;;;2.77;1.67;;;4.90;30.50;;;;;;5090920;27;46878;-79
2023/12/26 04:50:04;;;;;;;2.90;1.17;;;4.90;30.30;;;;;;5086356;27;47236;-80
2023/12/26 04:52:29;;;;;;;3.23;1.30;;;4.90;30.20;;;;;;5079678;27;46751;-79
2023/12/26 04:54:55;;;;;;;3.03;1.77;;;5.00;30.40;;;;;;5085163;27;46461;-80
2023/12/26 04:57:20;;;;;;;4.43;1.40;;;5.00;30.20;;;;;;5086711;27;46478;-79
2023/12/26 04:59:46;;;;;;;2.10;1.20;;;5.00;30.10;;;;;;5088348;27;46788;-80
2023/12/26 05:02:12;;;;;;;4.20;1.40;;;5.00;30.10;;;;;;5061892;27;45906;-80
2023/12/26 05:04:38;;;;;;;1.83;1.20;;;5.00;30.10;;;;;;5087885;27;46395;-81
2023/12/26 05:07:03;;;;;;;3.60;1.67;;;4.90;30.10;;;;;;5084546;28;46571;-80
2023/12/26 05:09:29;;;;;;;3.27;1.50;;;4.90;30.00;;;;;;5087639;27;47868;-81
2023/12/26 05:11:55;;;;;;;3.80;1.53;;;4.90;30.00;;;;;;5077775;28;46205;-80
2023/12/26 05:14:20;;;;;;;3.23;1.80;;;4.90;30.10;;;;;;5088944;27;45797;-80
2023/12/26 05:16:48;;;;;;;1.90;1.20;;;4.90;30.00;;;;;;5091134;27;46514;-81
2023/12/26 05:19:14;;;;;;;3.40;2.43;;;4.90;30.00;;;;;;5076683;27;46525;-79
2023/12/26 05:21:40;;;;;;;2.93;1.40;;;4.90;30.00;;;;;;5063551;28;46490;-79
2023/12/26 05:24:06;;;;;;;5.10;1.53;;;4.90;30.00;;;;;;5063357;27;46435;-79
2023/12/26 05:26:42;;;;;;;3.53;1.67;;;4.80;30.00;;;;;;5078242;27;45870;-79
2023/12/26 05:29:09;;;;;;;3.10;1.50;;;4.80;30.00;;;;;;5061257;28;48294;-79
2023/12/26 05:31:34;;;;;;;3.80;1.70;;;4.80;30.00;;;;;;5079132;27;46417;-79
2023/12/26 05:34:03;;;;;;;3.50;1.60;;;4.70;30.00;;;;;;5080548;28;46643;-79
2023/12/26 05:36:28;;;;;;;2.53;1.43;;;4.70;30.10;;;;;;5079258;27;46805;-79
2023/12/26 05:38:54;;;;;;;3.47;1.93;;;4.70;30.00;;;;;;5079637;27;47018;-79
2023/12/26 05:41:19;;;;;;;2.30;1.40;;;4.70;30.00;;;;;;5076726;27;46934;-79
2023/12/26 05:43:45;;;;;;;3.87;1.50;;;4.70;30.10;;;;;;5079688;27;47445;-78
2023/12/26 05:46:11;;;;;;;2.87;1.47;;;4.70;30.10;;;;;;5076672;27;46499;-79
2023/12/26 05:48:36;;;;;;;2.70;1.63;;;4.70;30.10;;;;;;5059183;28;48394;-79
2023/12/26 05:51:02;;;;;;;4.00;1.50;;;4.70;30.10;;;;;;5077809;28;45977;-79
2023/12/26 05:53:30;;;;;;;3.63;1.50;;;4.60;30.20;;;;;;5077078;27;47747;-79
2023/12/26 05:55:59;;;;;;;3.10;1.20;;;4.60;30.20;;;;;;5079518;27;46404;-79
2023/12/26 05:58:25;;;;;;;3.97;1.70;;;4.60;30.30;;;;;;5075529;27;47229;-79
2023/12/26 06:00:51;;;;;;;4.50;1.30;;;4.60;30.20;;;;;;5061414;28;46994;-79
2023/12/26 06:03:16;;;;;;;5.10;1.57;;;4.60;30.20;;;;;;5044298;27;46485;-78
2023/12/26 06:05:42;;;;;;;5.20;1.53;;;4.60;30.30;;;;;;5080153;27;46397;-79
2023/12/26 06:08:08;;;;;;;4.07;1.67;;;4.50;30.40;;;;;;5079176;27;47658;-78
2023/12/26 06:10:34;;;;;;;5.17;1.93;;;4.50;30.50;;;;;;5080903;27;46395;-79
2023/12/26 06:12:59;;;;;;;7.57;1.83;;;4.50;30.60;;;;;;5081164;28;45895;-79
2023/12/26 06:15:25;;;;;;;3.03;1.80;;;4.50;30.70;;;;;;5080650;28;46446;-79
2023/12/26 06:17:50;;;;;;;4.87;2.03;;;4.50;30.70;;;;;;5081605;27;46817;-77
2023/12/26 06:20:16;;;;;;;4.33;1.60;;;4.40;30.70;;;;;;5059791;28;45886;-76
2023/12/26 06:22:42;;;;;;;6.50;1.50;;;4.40;30.90;;;;;;5083855;27;46799;-78
2023/12/26 06:25:08;;;;;;;5.90;1.60;;;4.40;30.90;;;;;;5082561;28;46415;-79
2023/12/26 06:27:34;;;;;;;3.60;1.53;;;4.40;31.00;;;;;;5081253;27;46437;-80
2023/12/26 06:29:59;;;;;;;3.57;1.73;;;4.40;31.00;;;;;;5079993;28;46544;-80
2023/12/26 06:32:25;;;;;;;4.13;2.43;;;4.40;31.10;;;;;;5070748;28;46935;-79
2023/12/26 06:34:51;;;;;;;2.23;1.47;;;4.40;31.10;;;;;;5087642;27;46178;-77
2023/12/26 06:37:16;;;;;;;4.00;1.50;;;4.40;31.10;;;;;;5085656;27;46499;-81
2023/12/26 06:39:43;;;;;;;3.50;1.57;;;4.40;31.30;;;;;;5085394;27;46598;-83
2023/12/26 06:42:10;;;;;;;3.90;2.20;;;4.40;31.50;;;;;;5085206;28;46795;-80
2023/12/26 06:44:36;;;;;;;6.20;1.60;;;4.40;31.50;;;;;;5085408;27;46297;-80
2023/12/26 06:47:01;;;;;;;2.23;1.30;;;4.30;31.60;;;;;;5087735;27;46107;-79
2023/12/26 06:49:27;;;;;;;3.30;1.47;;;4.30;31.70;;;;;;5086542;27;46213;-79
2023/12/26 06:51:52;;;;;;;4.43;1.83;;;4.20;31.80;;;;;;5088316;27;45949;-80
2023/12/26 06:54:18;;;;;;;3.50;1.60;;;4.20;31.90;;;;;;5062820;28;46559;-78
2023/12/26 06:56:44;;;;;;;4.13;1.47;;;4.10;32.00;;;;;;5081584;28;46380;-79
2023/12/26 06:59:09;;;;;;;2.30;1.40;;;4.00;32.20;;;;;;5080446;27;46684;-79
2023/12/26 07:01:35;;;;;;;3.40;1.43;;;3.90;32.30;;;;;;5063454;28;46518;-79
2023/12/26 07:04:01;;;;;;;4.00;1.83;;;3.90;32.50;;;;;;5079038;27;46322;-80
2023/12/26 07:06:27;;;;;;;7.03;1.67;;;3.80;32.40;;;;;;5075192;27;47188;-79
2023/12/26 07:08:53;;;;;;;3.20;1.70;;;3.80;32.30;;;;;;5064200;28;46672;-78
2023/12/26 07:11:18;;;;;;;6.40;1.80;;;3.90;32.30;;;;;;5077304;27;45967;-76
2023/12/26 07:13:44;;;;;;;3.10;1.50;;;3.80;32.10;;;;;;5077805;27;46565;-79
2023/12/26 07:16:09;;;;;;;2.93;2.00;;;4.00;32.30;;;;;;5064028;28;47850;-79
2023/12/26 07:18:35;;;;;;;2.60;1.40;;;3.90;32.00;;;;;;5074936;27;45970;-79
2023/12/26 07:21:01;;;;;;;3.93;1.60;;;4.00;31.90;;;;;;5077328;28;46452;-79
2023/12/26 07:23:26;;;;;;;4.57;1.93;;;4.00;31.90;;;;;;5077505;27;46671;-78
2023/12/26 07:25:52;;;;;;;2.73;1.93;;;4.10;31.70;;;;;;5073590;27;46237;-77
2023/12/26 07:28:18;;;;;;;3.30;1.60;;;4.20;31.90;;;;;;5076913;28;46997;-77
2023/12/26 07:30:44;;;;;;;6.50;2.07;;;4.30;31.60;;;;;;5074611;28;46618;-78
2023/12/26 07:33:09;;;;;;;4.20;2.10;;;4.40;31.60;;;;;;5078657;27;46482;-80
2023/12/26 07:35:37;;;;;;;9.33;3.80;;;4.50;31.40;;;;;;5076752;27;46416;-80
2023/12/26 07:38:03;;;;;;;12.30;4.00;;;4.50;31.20;;;;;;5078868;27;46518;-78
2023/12/26 07:40:30;;;;;;;13.80;6.37;;;4.70;31.30;;;;;;5059066;27;46793;-78
2023/12/26 07:42:57;;;;;;;15.43;9.97;;;4.70;31.00;;;;;;5057400;28;46450;-79
2023/12/26 07:45:24;;;;;;;8.03;6.40;;;4.80;31.00;;;;;;5077052;27;46536;-78
2023/12/26 07:47:51;;;;;;;4.80;2.37;;;4.90;31.00;;;;;;5055508;28;46525;-78
2023/12/26 07:50:16;;;;;;;5.10;2.33;;;5.00;30.90;;;;;;5078452;27;46450;-78
2023/12/26 07:52:42;;;;;;;12.13;4.07;;;5.00;30.80;;;;;;5077484;28;46485;-80
2023/12/26 07:55:08;;;;;;;17.87;11.30;;;5.20;30.90;;;;;;5029244;28;46930;-78
2023/12/26 07:57:33;;;;;;;15.23;11.07;;;5.30;30.60;;;;;;5038513;28;46362;-79
2023/12/26 07:59:59;;;;;;;11.50;7.03;;;5.50;30.40;;;;;;5038756;28;46464;-78
2023/12/26 08:02:25;;;;;;;5.63;4.50;;;5.60;30.20;;;;;;5021235;28;46379;-80
2023/12/26 08:04:50;;;;;;;4.60;3.40;;;5.70;30.10;;;;;;5021624;28;47760;-81
2023/12/26 08:07:16;;;;;;;4.37;3.10;;;5.80;31.10;;;;;;5042065;28;46472;-78
2023/12/26 08:09:41;;;;;;;9.50;5.60;;;5.90;31.00;;;;;;5012540;28;46450;-78
2023/12/26 08:12:07;;;;;;;7.30;3.27;;;6.00;29.90;;;;;;5030588;28;47381;-79
2023/12/26 08:14:32;;;;;;;3.27;2.17;;;6.10;29.90;;;;;;5021357;28;49260;-79
2023/12/26 08:16:58;;;;;;;5.03;2.20;;;6.10;29.90;;;;;;5041432;28;46853;-79
2023/12/26 08:19:24;;;;;;;9.73;4.13;;;6.20;29.90;;;;;;5041004;28;46422;-80
2023/12/26 08:21:49;;;;;;;8.60;3.60;;;6.30;29.90;;;;;;5042529;28;46825;-79
2023/12/26 08:24:15;;;;;;;4.67;2.60;;;6.30;29.90;;;;;;5041938;28;47854;-79
2023/12/26 08:26:41;;;;;;;7.23;2.30;;;6.40;29.90;;;;;;5038186;28;46442;-77
2023/12/26 08:29:07;;;;;;;4.53;1.90;;;6.50;29.80;;;;;;5037358;28;46700;-78
2023/12/26 08:31:32;;;;;;;4.90;2.23;;;6.60;29.90;;;;;;5038813;28;46426;-77
2023/12/26 08:33:58;;;;;;;3.97;2.33;;;6.70;30.80;;;;;;5044282;28;46448;-77
2023/12/26 08:36:25;;;;;;;5.37;2.17;;;6.80;29.80;;;;;;5047417;28;46859;-79
2023/12/26 08:38:50;;;;;;;5.10;2.00;;;6.80;29.70;;;;;;5045687;28;46540;-79
2023/12/26 08:41:16;;;;;;;7.10;3.37;;;7.00;29.80;;;;;;5047005;28;47011;-82
2023/12/26 08:43:42;;;;;;;12.30;2.27;;;7.00;29.80;;;;;;5046080;28;46714;-80
2023/12/26 08:46:07;;;;;;;17.87;8.50;;;7.10;29.70;;;;;;5046902;28;46722;-79
2023/12/26 08:48:33;;;;;;;8.33;4.73;;;7.40;29.80;;;;;;5045666;28;46506;-77
2023/12/26 08:50:59;;;;;;;3.30;1.80;;;7.40;29.70;;;;;;5022394;28;46508;-80
2023/12/26 08:53:24;;;;;;;3.97;1.70;;;7.50;29.60;;;;;;5020967;28;48155;-80
2023/12/26 08:55:50;;;;;;;3.10;1.60;;;7.60;29.70;;;;;;5040435;28;46341;-78
2023/12/26 08:58:15;;;;;;;5.03;1.90;;;7.70;29.70;;;;;;5041633;28;46577;-82
2023/12/26 09:00:41;;;;;;;3.70;1.70;;;7.70;29.60;;;;;;5022921;28;46722;-80
2023/12/26 09:03:07;;;;;;;3.67;1.70;;;7.80;29.60;;;;;;5040272;28;46799;-80
2023/12/26 09:05:36;;;;;;;5.20;1.60;;;7.80;29.60;;;;;;5040470;28;46503;-79
2023/12/26 09:08:02;;;;;;;8.87;2.00;;;7.90;29.60;;;;;;5040989;28;46447;-80
2023/12/26 09:10:27;;;;;;;3.57;1.60;;;7.90;29.60;;;;;;5041764;28;47634;-81
2023/12/26 09:12:53;;;;;;;2.17;1.40;;;8.00;29.60;;;;;;5023581;28;48139;-80
2023/12/26 09:15:18;;;;;;;4.17;1.60;;;8.00;29.60;;;;;;5041299;28;46723;-81
2023/12/26 09:17:44;;;;;;;3.83;1.73;;;8.10;29.60;;;;;;5040418;28;46157;-80
2023/12/26 09:20:10;;;;;;;5.00;1.67;;;8.20;29.50;;;;;;5041120;28;46272;-80
2023/12/26 09:22:36;;;;;;;5.20;1.90;;;8.30;29.30;;;;;;5041393;28;46758;-81
2023/12/26 09:25:01;;;;;;;10.47;1.90;;;8.30;29.10;;;;;;5040478;28;46776;-82
2023/12/26 09:27:28;;;;;;;2.73;1.47;;;8.40;28.90;;;;;;5024922;28;46428;-79
2023/12/26 09:29:54;;;;;;;4.50;1.70;;;8.60;29.70;;;;;;5038678;28;46335;-81
2023/12/26 09:32:19;;;;;;;4.00;1.60;;;8.60;28.60;;;;;;5036159;28;46467;-81
2023/12/26 09:34:45;;;;;;;3.47;2.07;;;8.70;28.60;;;;;;5036440;28;46427;-82
2023/12/26 09:37:10;;;;;;;6.10;1.73;;;8.80;28.40;;;;;;5026348;28;46628;-82
2023/12/26 09:39:36;;;;;;;3.83;1.90;;;8.90;28.20;;;;;;5043588;28;46876;-81
2023/12/26 09:42:03;;;;;;;4.97;1.57;;;9.00;28.10;;;;;;5040026;28;46599;-81
2023/12/26 09:44:30;;;;;;;6.13;1.77;;;9.10;28.00;;;;;;5041498;28;46810;-80
2023/12/26 09:46:55;;;;;;;4.43;1.50;;;9.10;27.70;;;;;;5040223;28;46423;-81
2023/12/26 09:49:21;;;;;;;4.77;1.60;;;9.30;27.40;;;;;;5020820;28;46499;-81
2023/12/26 09:51:50;;;;;;;3.83;1.50;;;9.20;27.40;;;;;;5022086;28;49503;-80
2023/12/26 09:54:17;;;;;;;3.23;1.60;;;9.20;27.40;;;;;;5026539;28;47181;-80
2023/12/26 09:56:45;;;;;;;6.23;1.50;;;9.40;27.50;;;;;;5018366;28;46335;-81
2023/12/26 09:59:13;;;;;;;4.20;1.37;;;9.30;27.30;;;;;;5021136;28;47099;-82
2023/12/26 10:01:38;;;;;;;5.87;1.60;;;9.30;27.20;;;;;;5019634;28;47028;-82
2023/12/26 10:04:06;;;;;;;6.47;2.07;;;9.30;27.20;;;;;;5040693;28;46760;-82
2023/12/26 10:06:31;;;;;;;4.63;1.70;;;9.40;27.10;;;;;;5039455;28;46883;-83
2023/12/26 10:08:57;;;;;;;4.73;1.57;;;9.40;27.10;;;;;;5040270;28;46769;-83
2023/12/26 10:11:26;;;;;;;5.80;1.60;;;9.40;26.80;;;;;;5038805;28;47906;-81
2023/12/26 10:13:55;;;;;;;5.23;1.63;;;9.40;26.60;;;;;;5036067;28;46686;-78
2023/12/26 10:16:21;;;;;;;4.30;1.47;;;9.50;26.60;;;;;;5039438;28;46590;-78
2023/12/26 10:18:47;;;;;;;6.00;1.60;;;9.50;26.50;;;;;;5021315;28;46640;-85
2023/12/26 10:21:13;;;;;;;3.00;1.53;;;9.50;26.50;;;;;;5038975;28;47096;-81
2023/12/26 10:23:39;;;;;;;5.80;2.57;;;9.50;26.50;;;;;;5036574;28;46683;-82
2023/12/26 10:26:05;;;;;;;5.33;1.70;;;9.50;26.50;;;;;;5021781;28;45878;-80
2023/12/26 10:28:38;;;;;;;5.13;1.83;;;9.50;26.50;;;;;;5039750;28;47006;-81
2023/12/26 10:31:14;;;;;;;8.43;1.73;;;9.50;26.50;;;;;;5023696;28;48048;-79
2023/12/26 10:33:41;;;;;;;3.97;1.60;;;9.60;26.60;;;;;;5039393;28;46471;-84
2023/12/26 10:36:07;;;;;;;3.17;1.40;;;9.60;26.60;;;;;;5040556;28;46234;-84
2023/12/26 10:38:33;;;;;;;3.30;1.43;;;9.30;26.40;;;;;;5024528;28;47468;-81
2023/12/26 10:41:04;;;;;;;7.33;1.60;;;9.20;26.30;;;;;;5019642;28;48011;-81
2023/12/26 10:43:29;;;;;;;5.30;1.77;;;9.30;26.40;;;;;;5036942;28;46395;-80
2023/12/26 10:45:59;;;;;;;3.63;1.93;;;9.30;26.50;;;;;;5034836;28;46415;-81
2023/12/26 10:48:32;;;;;;;5.13;2.07;;;9.50;26.50;;;;;;5036426;28;47170;-82
2023/12/26 10:51:00;;;;;;;7.93;1.73;;;9.50;26.00;;;;;;5033405;28;48221;-81
2023/12/26 10:53:35;;;;;;;3.13;1.40;;;9.50;25.90;;;;;;5037461;28;46707;-80
2023/12/26 10:56:00;;;;;;;5.73;1.70;;;9.50;26.00;;;;;;5018321;28;46609;-80
2023/12/26 10:58:31;;;;;;;5.13;1.63;;;9.60;25.90;;;;;;5020739;28;46574;-77
2023/12/26 13:52:03;;;;;;;3.53;1.50;;;10.10;24.10;;;;;;5036611;28;47496;-81
2023/12/26 13:55:07;;;;;;;5.80;1.60;;;10.20;23.80;;;;;;5038628;28;46629;-79
2023/12/26 13:58:10;;;;;;;3.60;1.40;;;10.30;23.50;;;;;;5038126;28;46861;-79
2023/12/26 14:01:14;;;;;;;6.93;1.60;;;10.40;23.10;;;;;;5021955;28;46551;-78
2023/12/26 14:04:17;;;;;;;4.03;1.80;;;10.40;22.70;;;;;;5038559;28;46862;-78
2023/12/26 14:07:21;;;;;;;3.53;1.37;;;10.50;22.90;;;;;;5020084;28;48094;-79
2023/12/26 14:10:24;;;;;;;8.43;1.90;;;10.50;22.80;;;;;;5036378;28;46479;-79
2023/12/26 14:13:27;;;;;;;11.33;1.70;;;10.40;22.80;;;;;;5035943;28;45875;-76
2023/12/26 14:16:30;;;;;;;6.40;1.70;;;10.50;22.80;;;;;;5018916;28;46923;-78
2023/12/26 14:19:34;;;;;;;3.57;1.50;;;10.50;22.70;;;;;;5036813;28;46470;-79
2023/12/26 14:22:37;;;;;;;6.43;2.07;;;10.50;22.60;;;;;;5037346;28;46692;-81
2023/12/26 14:25:40;;;;;;;5.67;1.87;;;10.40;22.70;;;;;;5042169;28;46643;-79
2023/12/26 14:28:43;;;;;;;12.90;2.47;;;10.30;22.60;;;;;;5026036;28;45876;-79
2023/12/26 14:31:46;;;;;;;4.97;2.13;;;10.30;22.50;;;;;;5035130;28;47032;-80
2023/12/26 14:34:50;;;;;;;7.83;2.07;;;10.30;22.70;;;;;;5016267;28;46701;-77
2023/12/26 14:37:53;;;;;;;6.83;1.93;;;10.20;22.70;;;;;;5035505;28;46895;-77
2023/12/26 14:40:57;;;;;;;3.80;2.07;;;10.10;22.60;;;;;;5040942;28;46460;-77
2023/12/26 14:44:00;;;;;;;4.57;1.80;;;10.10;22.70;;;;;;5039758;28;46720;-78
2023/12/26 14:47:03;;;;;;;5.90;2.03;;;10.00;22.80;;;;;;5023791;28;46602;-76
2023/12/26 14:50:06;;;;;;;4.80;1.63;;;10.00;22.60;;;;;;5042110;28;45880;-78
2023/12/26 14:53:09;;;;;;;5.40;1.57;;;10.00;22.70;;;;;;5042622;28;46396;-79
2023/12/26 14:56:12;;;;;;;6.00;2.00;;;9.90;23.50;;;;;;5043327;28;46831;-79
2023/12/26 14:59:15;;;;;;;7.00;2.20;;;9.90;23.50;;;;;;5041747;28;46423;-79
2023/12/26 15:02:01;;;;;;;11.03;1.90;;;9.90;23.40;;;;;;5042074;28;46606;-78
2023/12/26 15:04:28;;;;;;;6.10;2.13;;;9.80;23.40;;;;;;5038541;28;46428;-77
2023/12/26 15:06:57;;;;;;;6.20;1.47;;;9.80;23.50;;;;;;5039056;28;46561;-77
2023/12/26 15:09:22;;;;;;;3.43;1.60;;;9.80;23.50;;;;;;5036777;28;46531;-77
2023/12/26 15:11:48;;;;;;;3.60;1.40;;;9.80;23.60;;;;;;5022474;28;46755;-76
2023/12/26 15:14:14;;;;;;;7.07;1.73;;;9.70;23.60;;;;;;5020461;28;46087;-78
2023/12/26 15:16:39;;;;;;;6.13;3.50;;;9.70;24.50;;;;;;5019609;28;48327;-77
2023/12/26 15:19:05;;;;;;;6.70;2.00;;;9.60;23.80;;;;;;5040419;28;47581;-78
2023/12/26 15:21:31;;;;;;;3.60;1.57;;;9.50;24.70;;;;;;5037528;28;46632;-77
2023/12/26 15:23:56;;;;;;;6.63;1.83;;;9.50;23.80;;;;;;5039728;28;46568;-77
2023/12/26 15:26:22;;;;;;;6.00;1.73;;;9.40;23.80;;;;;;5036975;28;46854;-77
2023/12/26 15:28:48;;;;;;;3.87;1.73;;;9.40;23.90;;;;;;5036370;28;46451;-76
2023/12/26 15:31:19;;;;;;;8.40;1.80;;;9.30;23.90;;;;;;5035519;28;46232;-76
2023/12/26 15:33:47;;;;;;;6.60;1.87;;;9.30;24.10;;;;;;5036192;28;46790;-76
2023/12/26 15:36:24;;;;;;;4.73;1.90;;;9.30;24.00;;;;;;5038186;28;46413;-77
2023/12/26 15:38:51;;;;;;;7.50;2.00;;;9.30;24.00;;;;;;5038066;28;46669;-77
2023/12/26 15:41:20;;;;;;;6.30;1.70;;;9.30;24.00;;;;;;5039254;28;46452;-76
2023/12/26 15:43:46;;;;;;;8.60;2.00;;;9.30;24.10;;;;;;5038858;28;46989;-76
2023/12/26 15:46:19;;;;;;;2.97;1.70;;;9.20;24.00;;;;;;5037650;28;46970;-77
2023/12/26 15:48:46;;;;;;;6.43;2.00;;;9.20;24.10;;;;;;5037682;28;46495;-77
2023/12/26 15:51:24;;;;;;;5.87;1.73;;;9.20;24.10;;;;;;5039491;28;46018;-76
2023/12/26 15:53:51;;;;;;;4.13;1.93;;;9.20;24.30;;;;;;5038873;28;46430;-78